sensor_id;sensor_type;location;lat;lon;timestamp;temperature;humidity
52889;DHT22;41413;52.770;6.892;2022-07-12T00:01:53;15.90;99.90
52889;DHT22;41413;52.770;6.892;2022-07-12T00:04:20;15.80;99.90
52889;DHT22;41413;52.770;6.892;2022-07-12T00:06:47;15.80;99.90
52889;DHT22;41413;52.770;6.892;2022-07-12T00:09:13;15.90;99.90
52889;DHT22;41413;52.770;6.892;2022-07-12T00:11:40;15.80;99.90
52889;DHT22;41413;52.770;6.892;2022-07-12T00:14:08;15.80;99.90
52889;DHT22;41413;52.770;6.892;2022-07-12T00:16:36;15.70;99.90
52889;DHT22;41413;52.770;6.892;2022-07-12T00:19:04;15.70;99.90
52889;DHT22;41413;52.770;6.892;2022-07-12T00:21:31;15.70;99.90
52889;DHT22;41413;52.770;6.892;2022-07-12T00:23:57;15.70;99.90
52889;DHT22;41413;52.770;6.892;2022-07-12T00:26:24;15.70;99.90
52889;DHT22;41413;52.770;6.892;2022-07-12T00:28:51;15.60;99.90
52889;DHT22;41413;52.770;6.892;2022-07-12T00:31:18;15.70;99.90
52889;DHT22;41413;52.770;6.892;2022-07-12T00:33:45;15.60;99.90
52889;DHT22;41413;52.770;6.892;2022-07-12T00:36:12;15.50;99.90
52889;DHT22;41413;52.770;6.892;2022-07-12T00:38:39;15.50;99.90
52889;DHT22;41413;52.770;6.892;2022-07-12T00:41:05;15.50;99.90
52889;DHT22;41413;52.770;6.892;2022-07-12T00:43:32;15.50;99.90
52889;DHT22;41413;52.770;6.892;2022-07-12T00:45:59;15.50;99.90
52889;DHT22;41413;52.770;6.892;2022-07-12T00:48:25;15.40;99.90
52889;DHT22;41413;52.770;6.892;2022-07-12T00:50:52;15.40;99.90
52889;DHT22;41413;52.770;6.892;2022-07-12T00:53:19;15.40;99.90
52889;DHT22;41413;52.770;6.892;2022-07-12T00:55:57;15.30;99.90
52889;DHT22;41413;52.770;6.892;2022-07-12T00:58:25;15.30;99.90
52889;DHT22;41413;52.770;6.892;2022-07-12T01:00:55;15.20;99.90
52889;DHT22;41413;52.770;6.892;2022-07-12T01:03:22;15.30;99.90
52889;DHT22;41413;52.770;6.892;2022-07-12T01:05:49;15.10;99.90
52889;DHT22;41413;52.770;6.892;2022-07-12T01:08:16;15.10;99.90
52889;DHT22;41413;52.770;6.892;2022-07-12T01:10:43;15.10;99.90
52889;DHT22;41413;52.770;6.892;2022-07-12T01:13:11;15.00;99.90
52889;DHT22;41413;52.770;6.892;2022-07-12T01:15:40;15.00;99.90
52889;DHT22;41413;52.770;6.892;2022-07-12T01:18:07;15.10;99.90
52889;DHT22;41413;52.770;6.892;2022-07-12T01:20:34;15.00;99.90
52889;DHT22;41413;52.770;6.892;2022-07-12T01:23:01;15.00;99.90
52889;DHT22;41413;52.770;6.892;2022-07-12T01:25:28;15.00;99.90
52889;DHT22;41413;52.770;6.892;2022-07-12T01:27:55;14.90;99.90
52889;DHT22;41413;52.770;6.892;2022-07-12T01:30:22;14.80;99.90
52889;DHT22;41413;52.770;6.892;2022-07-12T01:32:49;14.80;99.90
52889;DHT22;41413;52.770;6.892;2022-07-12T01:35:18;14.80;99.90
52889;DHT22;41413;52.770;6.892;2022-07-12T01:37:45;14.70;99.90
52889;DHT22;41413;52.770;6.892;2022-07-12T01:40:14;14.70;99.90
52889;DHT22;41413;52.770;6.892;2022-07-12T01:42:41;14.60;99.90
52889;DHT22;41413;52.770;6.892;2022-07-12T01:45:11;14.70;99.90
52889;DHT22;41413;52.770;6.892;2022-07-12T01:47:38;14.70;99.90
52889;DHT22;41413;52.770;6.892;2022-07-12T01:50:09;14.70;99.90
52889;DHT22;41413;52.770;6.892;2022-07-12T01:52:39;14.70;99.90
52889;DHT22;41413;52.770;6.892;2022-07-12T01:55:07;14.80;99.90
52889;DHT22;41413;52.770;6.892;2022-07-12T01:57:33;14.70;99.90
52889;DHT22;41413;52.770;6.892;2022-07-12T02:00:03;14.70;99.90
52889;DHT22;41413;52.770;6.892;2022-07-12T02:02:31;14.70;99.90
52889;DHT22;41413;52.770;6.892;2022-07-12T02:05:02;14.70;99.90
52889;DHT22;41413;52.770;6.892;2022-07-12T02:07:30;14.70;99.90
52889;DHT22;41413;52.770;6.892;2022-07-12T02:09:57;14.60;99.90
52889;DHT22;41413;52.770;6.892;2022-07-12T02:12:24;14.60;99.90
52889;DHT22;41413;52.770;6.892;2022-07-12T02:14:51;14.60;99.90
52889;DHT22;41413;52.770;6.892;2022-07-12T02:17:18;14.50;99.90
52889;DHT22;41413;52.770;6.892;2022-07-12T02:19:45;14.40;99.90
52889;DHT22;41413;52.770;6.892;2022-07-12T02:22:12;14.40;99.90
52889;DHT22;41413;52.770;6.892;2022-07-12T02:24:38;14.40;99.90
52889;DHT22;41413;52.770;6.892;2022-07-12T02:27:05;14.30;99.90
52889;DHT22;41413;52.770;6.892;2022-07-12T02:29:32;14.30;99.90
52889;DHT22;41413;52.770;6.892;2022-07-12T02:32:00;14.30;99.90
52889;DHT22;41413;52.770;6.892;2022-07-12T02:34:27;14.20;99.90
52889;DHT22;41413;52.770;6.892;2022-07-12T02:36:53;14.20;99.90
52889;DHT22;41413;52.770;6.892;2022-07-12T02:39:20;14.10;99.90
52889;DHT22;41413;52.770;6.892;2022-07-12T02:41:47;14.10;99.90
52889;DHT22;41413;52.770;6.892;2022-07-12T02:44:14;14.10;99.90
52889;DHT22;41413;52.770;6.892;2022-07-12T02:46:40;14.10;99.90
52889;DHT22;41413;52.770;6.892;2022-07-12T02:49:07;14.00;99.90
52889;DHT22;41413;52.770;6.892;2022-07-12T02:51:34;14.00;99.90
52889;DHT22;41413;52.770;6.892;2022-07-12T02:54:00;14.00;99.90
52889;DHT22;41413;52.770;6.892;2022-07-12T02:56:28;14.00;99.90
52889;DHT22;41413;52.770;6.892;2022-07-12T02:58:54;14.00;99.90
52889;DHT22;41413;52.770;6.892;2022-07-12T03:01:21;14.00;99.90
52889;DHT22;41413;52.770;6.892;2022-07-12T03:03:48;14.00;99.90
52889;DHT22;41413;52.770;6.892;2022-07-12T03:06:15;14.00;99.90
52889;DHT22;41413;52.770;6.892;2022-07-12T03:08:42;14.00;99.90
52889;DHT22;41413;52.770;6.892;2022-07-12T03:11:09;13.90;99.90
52889;DHT22;41413;52.770;6.892;2022-07-12T03:13:36;13.90;99.90
52889;DHT22;41413;52.770;6.892;2022-07-12T03:16:03;13.80;99.90
52889;DHT22;41413;52.770;6.892;2022-07-12T03:18:30;13.80;99.90
52889;DHT22;41413;52.770;6.892;2022-07-12T03:20:57;13.80;99.90
52889;DHT22;41413;52.770;6.892;2022-07-12T03:23:24;13.80;99.90
52889;DHT22;41413;52.770;6.892;2022-07-12T03:25:51;13.80;99.90
52889;DHT22;41413;52.770;6.892;2022-07-12T03:28:17;13.80;99.90
52889;DHT22;41413;52.770;6.892;2022-07-12T03:30:44;13.80;99.90
52889;DHT22;41413;52.770;6.892;2022-07-12T03:33:11;13.80;99.90
52889;DHT22;41413;52.770;6.892;2022-07-12T03:35:38;13.80;99.90
52889;DHT22;41413;52.770;6.892;2022-07-12T03:38:04;13.80;99.90
52889;DHT22;41413;52.770;6.892;2022-07-12T03:40:32;13.80;99.90
52889;DHT22;41413;52.770;6.892;2022-07-12T03:43:00;13.80;99.90
52889;DHT22;41413;52.770;6.892;2022-07-12T03:45:27;13.80;99.90
52889;DHT22;41413;52.770;6.892;2022-07-12T03:47:54;13.80;99.90
52889;DHT22;41413;52.770;6.892;2022-07-12T03:50:21;13.80;99.90
52889;DHT22;41413;52.770;6.892;2022-07-12T03:52:47;13.80;99.90
52889;DHT22;41413;52.770;6.892;2022-07-12T03:55:15;13.80;99.90
52889;DHT22;41413;52.770;6.892;2022-07-12T03:57:41;13.80;99.90
52889;DHT22;41413;52.770;6.892;2022-07-12T04:00:09;13.80;99.90
52889;DHT22;41413;52.770;6.892;2022-07-12T04:02:39;13.80;99.90
52889;DHT22;41413;52.770;6.892;2022-07-12T04:05:07;13.80;99.90
52889;DHT22;41413;52.770;6.892;2022-07-12T04:07:35;13.80;99.90
52889;DHT22;41413;52.770;6.892;2022-07-12T04:10:03;13.90;99.90
52889;DHT22;41413;52.770;6.892;2022-07-12T04:12:30;13.90;99.90
52889;DHT22;41413;52.770;6.892;2022-07-12T04:14:57;14.00;99.90
52889;DHT22;41413;52.770;6.892;2022-07-12T04:17:24;14.00;99.90
52889;DHT22;41413;52.770;6.892;2022-07-12T04:19:53;14.10;99.90
52889;DHT22;41413;52.770;6.892;2022-07-12T04:22:20;14.10;99.90
52889;DHT22;41413;52.770;6.892;2022-07-12T04:24:46;14.10;99.90
52889;DHT22;41413;52.770;6.892;2022-07-12T04:27:13;14.20;99.90
52889;DHT22;41413;52.770;6.892;2022-07-12T04:29:40;14.50;99.90
52889;DHT22;41413;52.770;6.892;2022-07-12T04:32:07;14.20;99.90
52889;DHT22;41413;52.770;6.892;2022-07-12T04:34:34;14.20;99.90
52889;DHT22;41413;52.770;6.892;2022-07-12T04:37:00;14.20;99.90
52889;DHT22;41413;52.770;6.892;2022-07-12T04:39:27;14.30;99.90
52889;DHT22;41413;52.770;6.892;2022-07-12T04:41:54;14.30;99.90
52889;DHT22;41413;52.770;6.892;2022-07-12T04:44:21;14.30;99.90
52889;DHT22;41413;52.770;6.892;2022-07-12T04:46:47;14.40;99.90
52889;DHT22;41413;52.770;6.892;2022-07-12T04:49:14;14.40;99.90
52889;DHT22;41413;52.770;6.892;2022-07-12T04:51:41;14.40;99.90
52889;DHT22;41413;52.770;6.892;2022-07-12T04:54:08;14.60;99.90
52889;DHT22;41413;52.770;6.892;2022-07-12T04:56:34;14.50;99.90
52889;DHT22;41413;52.770;6.892;2022-07-12T04:59:01;14.50;99.90
52889;DHT22;41413;52.770;6.892;2022-07-12T05:01:29;14.50;99.90
52889;DHT22;41413;52.770;6.892;2022-07-12T05:03:56;14.40;99.90
52889;DHT22;41413;52.770;6.892;2022-07-12T05:06:23;14.50;99.90
52889;DHT22;41413;52.770;6.892;2022-07-12T05:08:50;14.50;99.90
52889;DHT22;41413;52.770;6.892;2022-07-12T05:11:16;14.60;99.90
52889;DHT22;41413;52.770;6.892;2022-07-12T05:13:44;14.60;99.90
52889;DHT22;41413;52.770;6.892;2022-07-12T05:16:10;14.60;99.90
52889;DHT22;41413;52.770;6.892;2022-07-12T05:18:37;14.60;99.90
52889;DHT22;41413;52.770;6.892;2022-07-12T05:21:04;14.60;99.90
52889;DHT22;41413;52.770;6.892;2022-07-12T05:23:31;14.70;99.90
52889;DHT22;41413;52.770;6.892;2022-07-12T05:25:58;14.70;99.90
52889;DHT22;41413;52.770;6.892;2022-07-12T05:28:24;14.70;99.90
52889;DHT22;41413;52.770;6.892;2022-07-12T05:30:51;14.70;99.90
52889;DHT22;41413;52.770;6.892;2022-07-12T05:33:18;14.70;99.90
52889;DHT22;41413;52.770;6.892;2022-07-12T05:35:45;14.80;99.90
52889;DHT22;41413;52.770;6.892;2022-07-12T05:38:12;14.80;99.90
52889;DHT22;41413;52.770;6.892;2022-07-12T05:40:38;14.80;99.90
52889;DHT22;41413;52.770;6.892;2022-07-12T05:43:05;15.00;99.90
52889;DHT22;41413;52.770;6.892;2022-07-12T05:45:32;15.00;99.90
52889;DHT22;41413;52.770;6.892;2022-07-12T05:47:58;15.00;99.90
52889;DHT22;41413;52.770;6.892;2022-07-12T05:50:25;15.10;99.90
52889;DHT22;41413;52.770;6.892;2022-07-12T05:52:52;15.10;99.90
52889;DHT22;41413;52.770;6.892;2022-07-12T05:55:37;15.20;99.90
52889;DHT22;41413;52.770;6.892;2022-07-12T05:58:04;15.20;99.90
52889;DHT22;41413;52.770;6.892;2022-07-12T06:00:30;15.30;99.90
52889;DHT22;41413;52.770;6.892;2022-07-12T06:02:59;15.30;99.90
52889;DHT22;41413;52.770;6.892;2022-07-12T06:05:26;15.40;99.90
52889;DHT22;41413;52.770;6.892;2022-07-12T06:07:53;15.50;99.90
52889;DHT22;41413;52.770;6.892;2022-07-12T06:10:20;15.60;99.90
52889;DHT22;41413;52.770;6.892;2022-07-12T06:12:46;15.60;99.90
52889;DHT22;41413;52.770;6.892;2022-07-12T06:15:14;15.70;99.90
52889;DHT22;41413;52.770;6.892;2022-07-12T06:17:41;15.80;99.90
52889;DHT22;41413;52.770;6.892;2022-07-12T06:20:08;15.90;99.90
52889;DHT22;41413;52.770;6.892;2022-07-12T06:22:35;16.10;99.90
52889;DHT22;41413;52.770;6.892;2022-07-12T06:25:02;16.20;99.90
52889;DHT22;41413;52.770;6.892;2022-07-12T06:27:50;16.40;99.90
52889;DHT22;41413;52.770;6.892;2022-07-12T06:30:21;16.50;99.90
52889;DHT22;41413;52.770;6.892;2022-07-12T06:32:48;16.60;99.90
52889;DHT22;41413;52.770;6.892;2022-07-12T06:35:16;16.70;99.90
52889;DHT22;41413;52.770;6.892;2022-07-12T06:37:42;16.80;99.90
52889;DHT22;41413;52.770;6.892;2022-07-12T06:40:10;16.90;99.90
52889;DHT22;41413;52.770;6.892;2022-07-12T06:42:37;17.00;99.90
52889;DHT22;41413;52.770;6.892;2022-07-12T06:45:05;17.10;99.90
52889;DHT22;41413;52.770;6.892;2022-07-12T06:47:32;17.20;99.90
52889;DHT22;41413;52.770;6.892;2022-07-12T06:49:58;17.30;99.90
52889;DHT22;41413;52.770;6.892;2022-07-12T06:52:25;17.40;99.90
52889;DHT22;41413;52.770;6.892;2022-07-12T06:54:57;17.60;99.90
52889;DHT22;41413;52.770;6.892;2022-07-12T06:57:24;17.80;99.90
52889;DHT22;41413;52.770;6.892;2022-07-12T06:59:53;17.90;99.90
52889;DHT22;41413;52.770;6.892;2022-07-12T07:02:21;18.00;99.90
52889;DHT22;41413;52.770;6.892;2022-07-12T07:04:48;18.10;99.90
52889;DHT22;41413;52.770;6.892;2022-07-12T07:07:14;18.10;99.90
52889;DHT22;41413;52.770;6.892;2022-07-12T07:09:41;18.10;99.90
52889;DHT22;41413;52.770;6.892;2022-07-12T07:12:08;18.10;99.90
52889;DHT22;41413;52.770;6.892;2022-07-12T07:14:35;18.10;99.90
52889;DHT22;41413;52.770;6.892;2022-07-12T07:17:02;18.10;99.90
52889;DHT22;41413;52.770;6.892;2022-07-12T07:19:29;18.20;99.90
52889;DHT22;41413;52.770;6.892;2022-07-12T07:21:55;18.20;99.90
52889;DHT22;41413;52.770;6.892;2022-07-12T07:24:22;18.20;99.90
52889;DHT22;41413;52.770;6.892;2022-07-12T07:26:49;18.20;99.90
52889;DHT22;41413;52.770;6.892;2022-07-12T07:29:23;18.30;99.90
52889;DHT22;41413;52.770;6.892;2022-07-12T07:32:09;18.30;99.90
52889;DHT22;41413;52.770;6.892;2022-07-12T07:34:35;18.40;99.90
52889;DHT22;41413;52.770;6.892;2022-07-12T07:37:02;18.50;99.90
52889;DHT22;41413;52.770;6.892;2022-07-12T07:39:29;18.60;99.90
52889;DHT22;41413;52.770;6.892;2022-07-12T07:41:56;18.70;99.90
52889;DHT22;41413;52.770;6.892;2022-07-12T07:44:23;18.70;99.90
52889;DHT22;41413;52.770;6.892;2022-07-12T07:46:58;18.70;99.90
52889;DHT22;41413;52.770;6.892;2022-07-12T07:49:25;18.70;99.90
52889;DHT22;41413;52.770;6.892;2022-07-12T07:51:52;18.80;99.90
52889;DHT22;41413;52.770;6.892;2022-07-12T07:54:19;18.70;99.90
52889;DHT22;41413;52.770;6.892;2022-07-12T07:56:45;18.70;99.90
52889;DHT22;41413;52.770;6.892;2022-07-12T07:59:12;18.70;99.90
52889;DHT22;41413;52.770;6.892;2022-07-12T08:01:39;18.70;99.90
52889;DHT22;41413;52.770;6.892;2022-07-12T08:04:13;18.70;99.90
52889;DHT22;41413;52.770;6.892;2022-07-12T08:06:41;18.70;99.90
52889;DHT22;41413;52.770;6.892;2022-07-12T08:09:08;18.80;99.90
52889;DHT22;41413;52.770;6.892;2022-07-12T08:11:39;18.90;99.90
52889;DHT22;41413;52.770;6.892;2022-07-12T08:14:07;19.00;99.90
52889;DHT22;41413;52.770;6.892;2022-07-12T08:16:34;19.10;99.90
52889;DHT22;41413;52.770;6.892;2022-07-12T08:19:02;19.10;99.90
52889;DHT22;41413;52.770;6.892;2022-07-12T08:21:29;19.10;99.90
52889;DHT22;41413;52.770;6.892;2022-07-12T08:23:56;19.10;99.90
52889;DHT22;41413;52.770;6.892;2022-07-12T08:26:23;19.20;99.90
52889;DHT22;41413;52.770;6.892;2022-07-12T08:28:51;19.20;99.90
52889;DHT22;41413;52.770;6.892;2022-07-12T08:31:18;19.30;99.90
52889;DHT22;41413;52.770;6.892;2022-07-12T08:33:44;19.40;99.90
52889;DHT22;41413;52.770;6.892;2022-07-12T08:36:11;19.70;99.90
52889;DHT22;41413;52.770;6.892;2022-07-12T08:38:38;20.10;99.90
52889;DHT22;41413;52.770;6.892;2022-07-12T08:41:07;21.00;99.90
52889;DHT22;41413;52.770;6.892;2022-07-12T08:43:36;22.20;99.90
52889;DHT22;41413;52.770;6.892;2022-07-12T08:46:11;23.20;99.90
52889;DHT22;41413;52.770;6.892;2022-07-12T08:48:39;24.10;99.90
52889;DHT22;41413;52.770;6.892;2022-07-12T08:51:11;24.70;99.90
52889;DHT22;41413;52.770;6.892;2022-07-12T08:53:39;25.20;99.90
52889;DHT22;41413;52.770;6.892;2022-07-12T08:56:07;25.30;99.90
52889;DHT22;41413;52.770;6.892;2022-07-12T08:58:33;25.20;99.90
52889;DHT22;41413;52.770;6.892;2022-07-12T09:01:00;25.10;99.90
52889;DHT22;41413;52.770;6.892;2022-07-12T09:03:27;25.50;99.90
52889;DHT22;41413;52.770;6.892;2022-07-12T09:05:56;25.60;99.90
52889;DHT22;41413;52.770;6.892;2022-07-12T09:08:31;25.60;99.90
52889;DHT22;41413;52.770;6.892;2022-07-12T09:11:01;25.90;99.90
52889;DHT22;41413;52.770;6.892;2022-07-12T09:13:51;26.30;99.90
52889;DHT22;41413;52.770;6.892;2022-07-12T09:16:25;26.50;99.90
52889;DHT22;41413;52.770;6.892;2022-07-12T09:19:15;26.50;99.90
52889;DHT22;41413;52.770;6.892;2022-07-12T09:21:53;26.60;99.90
52889;DHT22;41413;52.770;6.892;2022-07-12T09:24:24;26.80;99.90
52889;DHT22;41413;52.770;6.892;2022-07-12T09:26:59;26.50;99.90
52889;DHT22;41413;52.770;6.892;2022-07-12T09:29:26;26.30;99.90
52889;DHT22;41413;52.770;6.892;2022-07-12T09:31:53;26.40;99.90
52889;DHT22;41413;52.770;6.892;2022-07-12T09:34:38;26.20;99.90
52889;DHT22;41413;52.770;6.892;2022-07-12T09:37:25;26.20;99.90
52889;DHT22;41413;52.770;6.892;2022-07-12T09:39:55;25.90;99.90
52889;DHT22;41413;52.770;6.892;2022-07-12T09:42:23;25.60;99.90
52889;DHT22;41413;52.770;6.892;2022-07-12T09:44:55;25.60;99.90
52889;DHT22;41413;52.770;6.892;2022-07-12T09:47:23;25.50;99.90
52889;DHT22;41413;52.770;6.892;2022-07-12T09:49:51;25.90;99.90
52889;DHT22;41413;52.770;6.892;2022-07-12T09:52:23;26.20;99.90
52889;DHT22;41413;52.770;6.892;2022-07-12T09:54:52;25.90;99.90
52889;DHT22;41413;52.770;6.892;2022-07-12T09:59:49;26.30;99.90
52889;DHT22;41413;52.770;6.892;2022-07-12T10:02:18;25.90;99.90
52889;DHT22;41413;52.770;6.892;2022-07-12T10:04:46;25.70;99.90
52889;DHT22;41413;52.770;6.892;2022-07-12T10:07:14;25.40;99.90
52889;DHT22;41413;52.770;6.892;2022-07-12T10:09:52;25.60;99.90
52889;DHT22;41413;52.770;6.892;2022-07-12T10:12:21;25.60;99.90
52889;DHT22;41413;52.770;6.892;2022-07-12T10:14:57;25.90;99.90
52889;DHT22;41413;52.770;6.892;2022-07-12T10:17:26;26.00;99.90
52889;DHT22;41413;52.770;6.892;2022-07-12T10:20:16;26.30;99.90
52889;DHT22;41413;52.770;6.892;2022-07-12T10:22:43;26.90;99.90
52889;DHT22;41413;52.770;6.892;2022-07-12T10:27:52;27.40;98.60
52889;DHT22;41413;52.770;6.892;2022-07-12T10:30:22;27.50;98.50
52889;DHT22;41413;52.770;6.892;2022-07-12T10:32:51;27.80;98.60
52889;DHT22;41413;52.770;6.892;2022-07-12T10:35:22;27.60;97.50
52889;DHT22;41413;52.770;6.892;2022-07-12T10:40:41;28.00;95.90
52889;DHT22;41413;52.770;6.892;2022-07-12T10:45:41;28.00;96.50
52889;DHT22;41413;52.770;6.892;2022-07-12T10:53:31;28.00;95.90
52889;DHT22;41413;52.770;6.892;2022-07-12T10:58:33;27.20;95.00
52889;DHT22;41413;52.770;6.892;2022-07-12T11:01:09;27.40;94.70
52889;DHT22;41413;52.770;6.892;2022-07-12T11:06:21;27.50;94.30
52889;DHT22;41413;52.770;6.892;2022-07-12T11:08:58;27.50;95.40
52889;DHT22;41413;52.770;6.892;2022-07-12T11:11:34;27.80;95.30
52889;DHT22;41413;52.770;6.892;2022-07-12T11:14:01;28.10;95.90
52889;DHT22;41413;52.770;6.892;2022-07-12T11:16:30;28.10;95.50
52889;DHT22;41413;52.770;6.892;2022-07-12T11:18:58;28.00;94.90
52889;DHT22;41413;52.770;6.892;2022-07-12T11:21:25;28.00;95.40
52889;DHT22;41413;52.770;6.892;2022-07-12T11:23:52;27.80;95.00
52889;DHT22;41413;52.770;6.892;2022-07-12T11:26:19;27.60;94.20
52889;DHT22;41413;52.770;6.892;2022-07-12T11:28:46;27.30;94.40
52889;DHT22;41413;52.770;6.892;2022-07-12T11:31:16;27.60;94.80
52889;DHT22;41413;52.770;6.892;2022-07-12T11:33:47;28.00;94.90
52889;DHT22;41413;52.770;6.892;2022-07-12T11:36:15;28.20;94.80
52889;DHT22;41413;52.770;6.892;2022-07-12T11:38:44;28.00;93.50
52889;DHT22;41413;52.770;6.892;2022-07-12T11:41:13;27.60;92.80
52889;DHT22;41413;52.770;6.892;2022-07-12T11:43:40;27.40;93.50
52889;DHT22;41413;52.770;6.892;2022-07-12T11:46:08;27.50;93.90
52889;DHT22;41413;52.770;6.892;2022-07-12T11:48:36;27.50;94.10
52889;DHT22;41413;52.770;6.892;2022-07-12T11:51:06;27.40;93.60
52889;DHT22;41413;52.770;6.892;2022-07-12T11:53:34;27.20;93.70
52889;DHT22;41413;52.770;6.892;2022-07-12T11:56:03;27.10;93.90
52889;DHT22;41413;52.770;6.892;2022-07-12T11:58:31;27.30;94.50
52889;DHT22;41413;52.770;6.892;2022-07-12T12:01:05;27.10;94.10
52889;DHT22;41413;52.770;6.892;2022-07-12T12:03:43;27.10;94.30
52889;DHT22;41413;52.770;6.892;2022-07-12T12:06:12;27.30;94.50
52889;DHT22;41413;52.770;6.892;2022-07-12T12:08:39;27.50;94.30
52889;DHT22;41413;52.770;6.892;2022-07-12T12:11:06;27.70;94.40
52889;DHT22;41413;52.770;6.892;2022-07-12T12:13:33;27.90;94.20
52889;DHT22;41413;52.770;6.892;2022-07-12T12:16:01;27.90;94.00
52889;DHT22;41413;52.770;6.892;2022-07-12T12:18:33;28.20;94.10
52889;DHT22;41413;52.770;6.892;2022-07-12T12:21:03;28.40;94.80
52889;DHT22;41413;52.770;6.892;2022-07-12T12:23:31;28.30;93.80
52889;DHT22;41413;52.770;6.892;2022-07-12T12:26:17;28.60;94.10
52889;DHT22;41413;52.770;6.892;2022-07-12T12:28:50;28.80;94.10
52889;DHT22;41413;52.770;6.892;2022-07-12T12:31:22;28.90;93.50
52889;DHT22;41413;52.770;6.892;2022-07-12T12:36:27;29.10;94.10
52889;DHT22;41413;52.770;6.892;2022-07-12T12:39:00;29.30;92.90
52889;DHT22;41413;52.770;6.892;2022-07-12T12:41:29;29.50;92.70
52889;DHT22;41413;52.770;6.892;2022-07-12T12:44:06;29.10;92.30
52889;DHT22;41413;52.770;6.892;2022-07-12T12:46:53;29.00;91.00
52889;DHT22;41413;52.770;6.892;2022-07-12T12:49:47;29.00;92.90
52889;DHT22;41413;52.770;6.892;2022-07-12T12:52:24;28.90;92.00
52889;DHT22;41413;52.770;6.892;2022-07-12T12:54:52;29.10;93.40
52889;DHT22;41413;52.770;6.892;2022-07-12T12:57:19;28.90;92.60
52889;DHT22;41413;52.770;6.892;2022-07-12T12:59:46;29.10;93.40
52889;DHT22;41413;52.770;6.892;2022-07-12T13:02:13;29.40;93.70
52889;DHT22;41413;52.770;6.892;2022-07-12T13:04:40;29.40;91.80
52889;DHT22;41413;52.770;6.892;2022-07-12T13:07:06;29.10;91.00
52889;DHT22;41413;52.770;6.892;2022-07-12T13:09:39;29.10;90.50
52889;DHT22;41413;52.770;6.892;2022-07-12T13:12:06;28.90;90.60
52889;DHT22;41413;52.770;6.892;2022-07-12T13:14:34;28.90;91.00
52889;DHT22;41413;52.770;6.892;2022-07-12T13:17:01;28.90;91.90
52889;DHT22;41413;52.770;6.892;2022-07-12T13:19:27;29.10;91.60
52889;DHT22;41413;52.770;6.892;2022-07-12T13:21:54;29.20;91.10
52889;DHT22;41413;52.770;6.892;2022-07-12T13:24:21;28.90;89.40
52889;DHT22;41413;52.770;6.892;2022-07-12T13:26:48;28.80;91.00
52889;DHT22;41413;52.770;6.892;2022-07-12T13:29:14;28.60;91.10
52889;DHT22;41413;52.770;6.892;2022-07-12T13:31:41;28.50;90.80
52889;DHT22;41413;52.770;6.892;2022-07-12T13:34:08;28.70;91.00
52889;DHT22;41413;52.770;6.892;2022-07-12T13:36:35;28.70;90.80
52889;DHT22;41413;52.770;6.892;2022-07-12T13:39:02;28.80;91.20
52889;DHT22;41413;52.770;6.892;2022-07-12T13:41:49;28.90;91.40
52889;DHT22;41413;52.770;6.892;2022-07-12T13:44:15;28.60;91.20
52889;DHT22;41413;52.770;6.892;2022-07-12T13:46:48;28.70;92.00
52889;DHT22;41413;52.770;6.892;2022-07-12T13:49:15;28.80;91.30
52889;DHT22;41413;52.770;6.892;2022-07-12T13:51:42;28.50;87.00
52889;DHT22;41413;52.770;6.892;2022-07-12T13:54:09;28.30;85.60
52889;DHT22;41413;52.770;6.892;2022-07-12T13:56:35;28.20;87.30
52889;DHT22;41413;52.770;6.892;2022-07-12T13:59:03;28.40;90.40
52889;DHT22;41413;52.770;6.892;2022-07-12T14:01:31;28.40;91.00
52889;DHT22;41413;52.770;6.892;2022-07-12T14:03:58;28.30;90.10
52889;DHT22;41413;52.770;6.892;2022-07-12T14:06:24;28.20;90.70
52889;DHT22;41413;52.770;6.892;2022-07-12T14:08:51;28.30;91.80
52889;DHT22;41413;52.770;6.892;2022-07-12T14:11:20;28.10;90.80
52889;DHT22;41413;52.770;6.892;2022-07-12T14:13:46;28.20;91.80
52889;DHT22;41413;52.770;6.892;2022-07-12T14:16:13;28.10;90.90
52889;DHT22;41413;52.770;6.892;2022-07-12T14:18:41;28.10;91.10
52889;DHT22;41413;52.770;6.892;2022-07-12T14:21:08;28.00;91.20
52889;DHT22;41413;52.770;6.892;2022-07-12T14:23:36;28.10;91.90
52889;DHT22;41413;52.770;6.892;2022-07-12T14:26:02;28.00;91.60
52889;DHT22;41413;52.770;6.892;2022-07-12T14:28:29;28.00;91.60
52889;DHT22;41413;52.770;6.892;2022-07-12T14:30:56;28.00;87.10
52889;DHT22;41413;52.770;6.892;2022-07-12T14:33:23;28.00;89.70
52889;DHT22;41413;52.770;6.892;2022-07-12T14:35:49;28.00;90.20
52889;DHT22;41413;52.770;6.892;2022-07-12T14:38:16;28.00;91.10
52889;DHT22;41413;52.770;6.892;2022-07-12T14:40:43;28.20;91.70
52889;DHT22;41413;52.770;6.892;2022-07-12T14:43:10;28.30;92.60
52889;DHT22;41413;52.770;6.892;2022-07-12T14:45:37;28.40;92.90
52889;DHT22;41413;52.770;6.892;2022-07-12T14:48:04;28.10;91.30
52889;DHT22;41413;52.770;6.892;2022-07-12T14:50:31;28.10;91.30
52889;DHT22;41413;52.770;6.892;2022-07-12T14:52:58;28.10;92.00
52889;DHT22;41413;52.770;6.892;2022-07-12T14:55:24;28.10;91.70
52889;DHT22;41413;52.770;6.892;2022-07-12T14:57:51;28.00;91.70
52889;DHT22;41413;52.770;6.892;2022-07-12T15:00:18;28.10;92.50
52889;DHT22;41413;52.770;6.892;2022-07-12T15:02:46;27.80;85.90
52889;DHT22;41413;52.770;6.892;2022-07-12T15:05:18;27.90;91.40
52889;DHT22;41413;52.770;6.892;2022-07-12T15:07:45;27.60;90.80
52889;DHT22;41413;52.770;6.892;2022-07-12T15:10:11;27.60;91.50
52889;DHT22;41413;52.770;6.892;2022-07-12T15:12:38;27.60;92.40
52889;DHT22;41413;52.770;6.892;2022-07-12T15:15:05;27.70;89.20
52889;DHT22;41413;52.770;6.892;2022-07-12T15:17:32;27.70;92.70
52889;DHT22;41413;52.770;6.892;2022-07-12T15:19:59;27.60;92.20
52889;DHT22;41413;52.770;6.892;2022-07-12T15:22:25;27.50;92.10
52889;DHT22;41413;52.770;6.892;2022-07-12T15:24:52;27.50;92.20
52889;DHT22;41413;52.770;6.892;2022-07-12T15:27:19;27.60;92.80
52889;DHT22;41413;52.770;6.892;2022-07-12T15:29:45;27.70;93.50
52889;DHT22;41413;52.770;6.892;2022-07-12T15:32:14;27.80;93.50
52889;DHT22;41413;52.770;6.892;2022-07-12T15:34:41;27.80;93.30
52889;DHT22;41413;52.770;6.892;2022-07-12T15:37:07;27.80;93.50
52889;DHT22;41413;52.770;6.892;2022-07-12T15:39:34;27.80;92.60
52889;DHT22;41413;52.770;6.892;2022-07-12T15:42:01;27.80;92.40
52889;DHT22;41413;52.770;6.892;2022-07-12T15:44:28;27.70;90.70
52889;DHT22;41413;52.770;6.892;2022-07-12T15:46:54;27.60;89.80
52889;DHT22;41413;52.770;6.892;2022-07-12T15:49:21;27.70;90.30
52889;DHT22;41413;52.770;6.892;2022-07-12T15:51:48;27.70;89.90
52889;DHT22;41413;52.770;6.892;2022-07-12T15:54:33;27.70;90.10
52889;DHT22;41413;52.770;6.892;2022-07-12T15:57:00;27.70;90.10
52889;DHT22;41413;52.770;6.892;2022-07-12T15:59:30;27.80;89.10
52889;DHT22;41413;52.770;6.892;2022-07-12T16:01:57;27.70;88.80